Wetterdaten: Woche 13.12.21 - 19.12.21 (KW50)
Datum Zeit Temp. Aussen Temp. o. S. Temp +5cm Feuchte Auss Luftdruck Regen Sonnenschein Regendauer Solar Windben Empfang
13.12.2021 00:00 8,9 C 8,2 C 7,8 C 100 % 1026,0 hPa 0,2 l/m 0,00 h 0,17 h 0 W/m 13,7 km/h (3 Bft) 98,23 %
13.12.2021 01:00 8,7 C 7,8 C 7,8 C 100 % 1026,0 hPa 0,0 l/m 0,00 h 0,00 h 0 W/m 11,3 km/h (2 Bft) 94,77 %
13.12.2021 02:00 8,5 C 7,8 C 7,4 C 99 % 1026,2 hPa 0,0 l/m 0,00 h 0,00 h 0 W/m 7,9 km/h (2 Bft) 97,37 %
13.12.2021 03:00 8,4 C 7,8 C 7,2 C 99 % 1026,3 hPa 0,0 l/m 0,00 h 0,00 h 0 W/m 7,7 km/h (2 Bft) 96,86 %
13.12.2021 04:00 8,4 C 7,8 C 7,2 C 99 % 1026,5 hPa 0,0 l/m 0,00 h 0,00 h 0 W/m 9,4 km/h (2 Bft) 97,39 %
13.12.2021 05:00 8,6 C 7,8 C 7,2 C 98 % 1026,7 hPa 0,0 l/m 0,00 h 0,00 h 0 W/m 11,5 km/h (2 Bft) 96,33 %
13.12.2021 06:00 8,6 C 7,8 C 7,2 C 98 % 1026,7 hPa 0,0 l/m 0,00 h 0,00 h 0 W/m 12,1 km/h (2 Bft) 99,39 %
13.12.2021 07:00 8,6 C 7,8 C 7,2 C 97 % 1027,0 hPa 0,0 l/m 0,00 h 0,00 h 0 W/m 10,1 km/h (2 Bft) 96,56 %
13.12.2021 08:00 8,6 C 7,8 C 7,2 C 96 % 1027,2 hPa 0,0 l/m 0,00 h 0,00 h 0 W/m 10,2 km/h (2 Bft) 97,52 %
13.12.2021 09:00 8,7 C 8,0 C 7,2 C 95 % 1027,8 hPa 0,0 l/m 0,00 h 0,00 h 10 W/m 10,1 km/h (2 Bft) 98,36 %
13.12.2021 10:00 8,7 C 8,3 C 7,2 C 95 % 1028,0 hPa 0,0 l/m 0,00 h 0,00 h 29 W/m 11,6 km/h (2 Bft) 96,22 %
13.12.2021 11:00 9,1 C 8,9 C 7,5 C 95 % 1028,2 hPa 0,0 l/m 0,00 h 0,00 h 70 W/m 11,5 km/h (2 Bft) 97,15 %
13.12.2021 12:00 9,7 C 10,1 C 8,6 C 93 % 1028,0 hPa 0,0 l/m 0,30 h 0,00 h 122 W/m 11,7 km/h (2 Bft) 97,92 %
13.12.2021 13:00 10,2 C 9,8 C 8,6 C 88 % 1027,9 hPa 0,0 l/m 0,00 h 0,00 h 55 W/m 15,4 km/h (3 Bft) 95,09 %
13.12.2021 14:00 10,0 C 9,4 C 7,9 C 87 % 1027,8 hPa 0,0 l/m 0,00 h 0,00 h 28 W/m 7,2 km/h (2 Bft) 99,00 %
13.12.2021 15:00 9,7 C 8,9 C 7,6 C 89 % 1027,8 hPa 0,0 l/m 0,00 h 0,00 h 15 W/m 8,5 km/h (2 Bft) 97,86 %
13.12.2021 16:00 9,4 C 8,7 C 7,2 C 89 % 1027,8 hPa 0,0 l/m 0,00 h 0,00 h 6 W/m 8,0 km/h (2 Bft) 96,43 %
13.12.2021 17:00 9,1 C 8,3 C 6,8 C 89 % 1027,9 hPa 0,0 l/m 0,00 h 0,00 h 0 W/m 10,7 km/h (2 Bft) 98,29 %
13.12.2021 18:00 8,9 C 8,3 C 6,7 C 87 % 1028,0 hPa 0,0 l/m 0,00 h 0,00 h 0 W/m 11,5 km/h (2 Bft) 98,14 %
13.12.2021 19:00 8,7 C 8,0 C 6,1 C 86 % 1028,1 hPa 0,0 l/m 0,00 h 0,00 h 0 W/m 7,5 km/h (2 Bft) 95,87 %
13.12.2021 20:00 8,5 C 7,8 C 6,0 C 86 % 1027,8 hPa 0,0 l/m 0,00 h 0,00 h 0 W/m 7,3 km/h (2 Bft) 99,57 %
13.12.2021 21:00 8,6 C 7,8 C 5,7 C 87 % 1027,6 hPa 0,0 l/m 0,00 h 0,00 h 0 W/m 5,3 km/h (1 Bft) 94,68 %
13.12.2021 22:00 8,5 C 7,8 C 5,6 C 87 % 1027,4 hPa 0,0 l/m 0,00 h 0,00 h 0 W/m 5,9 km/h (2 Bft) 98,29 %
13.12.2021 23:00 8,3 C 7,8 C 5,5 C 88 % 1027,4 hPa 0,0 l/m 0,00 h 0,00 h 0 W/m 4,6 km/h (1 Bft) 98,29 %
14.12.2021 00:00 8,2 C 7,2 C 5,0 C 89 % 1027,7 hPa 0,0 l/m 0,00 h 0,00 h 0 W/m 4,5 km/h (1 Bft) 95,57 %
14.12.2021 01:00 8,0 C 7,2 C 5,0 C 90 % 1027,6 hPa 0,0 l/m 0,00 h 0,00 h 0 W/m 7,3 km/h (2 Bft) 95,89 %
14.12.2021 02:00 7,9 C 7,2 C 5,0 C 92 % 1027,5 hPa 0,0 l/m 0,00 h 0,00 h 0 W/m 7,5 km/h (2 Bft) 98,93 %
14.12.2021 03:00 7,6 C 7,0 C 5,0 C 93 % 1027,3 hPa 0,0 l/m 0,00 h 0,00 h 0 W/m 9,9 km/h (2 Bft) 96,30 %
14.12.2021 04:00 7,4 C 6,7 C 4,7 C 94 % 1026,9 hPa 0,0 l/m 0,00 h 0,00 h 0 W/m 11,2 km/h (2 Bft) 99,07 %
14.12.2021 05:00 7,2 C 6,2 C 4,4 C 96 % 1027,1 hPa 0,0 l/m 0,00 h 0,00 h 0 W/m 2,5 km/h (1 Bft) 96,65 %
14.12.2021 06:00 7,1 C 6,1 C 4,4 C 97 % 1027,0 hPa 0,0 l/m 0,00 h 0,00 h 0 W/m 5,6 km/h (1 Bft) 97,94 %
14.12.2021 07:00 6,9 C 6,3 C 4,6 C 97 % 1027,1 hPa 0,2 l/m 0,00 h 0,00 h 0 W/m 5,6 km/h (1 Bft) 97,08 %
14.12.2021 08:00 6,9 C 6,4 C 5,0 C 98 % 1027,7 hPa 0,0 l/m 0,00 h 0,00 h 5 W/m 7,5 km/h (2 Bft) 98,22 %
14.12.2021 09:00 6,9 C 6,7 C 5,0 C 97 % 1028,3 hPa 0,0 l/m 0,00 h 0,00 h 11 W/m 4,9 km/h (1 Bft) 97,07 %
14.12.2021 10:00 7,1 C 6,7 C 5,2 C 97 % 1028,3 hPa 0,0 l/m 0,00 h 0,00 h 31 W/m 5,9 km/h (2 Bft) 97,45 %
14.12.2021 11:00 7,4 C 7,2 C 5,6 C 97 % 1028,5 hPa 0,0 l/m 0,00 h 0,00 h 53 W/m 7,2 km/h (2 Bft) 97,97 %
14.12.2021 12:00 7,7 C 7,7 C 6,0 C 96 % 1028,2 hPa 0,0 l/m 0,00 h 0,00 h 66 W/m 7,3 km/h (2 Bft) 97,84 %
14.12.2021 13:00 8,3 C 8,6 C 6,6 C 95 % 1028,0 hPa 0,0 l/m 0,07 h 0,00 h 112 W/m 8,1 km/h (2 Bft) 96,53 %
14.12.2021 14:00 8,8 C 8,8 C 6,7 C 94 % 1027,8 hPa 0,0 l/m 0,27 h 0,00 h 83 W/m 8,4 km/h (2 Bft) 97,61 %
14.12.2021 15:00 8,8 C 8,3 C 6,7 C 93 % 1028,1 hPa 0,0 l/m 0,00 h 0,00 h 30 W/m 6,6 km/h (2 Bft) 96,75 %
14.12.2021 16:00 8,7 C 8,3 C 6,2 C 94 % 1028,3 hPa 0,0 l/m 0,00 h 0,00 h 7 W/m 9,0 km/h (2 Bft) 96,22 %
14.12.2021 17:00 8,7 C 7,8 C 6,1 C 94 % 1028,5 hPa 0,0 l/m 0,00 h 0,00 h 0 W/m 7,9 km/h (2 Bft) 95,67 %
14.12.2021 18:00 8,6 C 7,8 C 5,9 C 94 % 1028,7 hPa 0,0 l/m 0,00 h 0,00 h 0 W/m 12,2 km/h (3 Bft) 98,19 %
14.12.2021 19:00 8,4 C 7,8 C 6,1 C 95 % 1029,0 hPa 0,0 l/m 0,00 h 0,00 h 0 W/m 10,2 km/h (2 Bft) 96,72 %
14.12.2021 20:00 8,4 C 7,9 C 6,1 C 95 % 1029,3 hPa 0,0 l/m 0,00 h 0,00 h 0 W/m 6,7 km/h (2 Bft) 98,79 %
14.12.2021 21:00 8,7 C 8,2 C 6,1 C 95 % 1029,5 hPa 0,0 l/m 0,00 h 0,00 h 0 W/m 4,3 km/h (1 Bft) 96,44 %
14.12.2021 22:00 8,7 C 7,9 C 6,1 C 94 % 1029,6 hPa 0,0 l/m 0,00 h 0,00 h 0 W/m 3,0 km/h (1 Bft) 98,49 %
14.12.2021 23:00 8,7 C 8,0 C 6,1 C 95 % 1029,8 hPa 0,0 l/m 0,00 h 0,00 h 0 W/m 4,2 km/h (1 Bft) 97,58 %
15.12.2021 00:00 8,8 C 8,3 C 6,3 C 94 % 1029,9 hPa 0,0 l/m 0,00 h 0,00 h 0 W/m 11,7 km/h (2 Bft) 96,57 %
15.12.2021 01:00 8,9 C 8,3 C 6,1 C 93 % 1030,0 hPa 0,0 l/m 0,00 h 0,00 h 0 W/m 9,5 km/h (2 Bft) 98,43 %
15.12.2021 02:00 8,9 C 8,3 C 6,1 C 93 % 1030,1 hPa 0,0 l/m 0,00 h 0,00 h 0 W/m 11,9 km/h (2 Bft) 98,01 %
15.12.2021 03:00 8,6 C 7,8 C 5,6 C 95 % 1030,2 hPa 0,0 l/m 0,00 h 0,03 h 0 W/m 11,6 km/h (2 Bft) 94,68 %
15.12.2021 04:00 8,4 C 7,8 C 5,8 C 97 % 1030,2 hPa 0,0 l/m 0,00 h 0,00 h 0 W/m 15,5 km/h (3 Bft) 99,29 %
15.12.2021 05:00 8,3 C 7,8 C 6,0 C 97 % 1030,3 hPa 0,0 l/m 0,00 h 0,00 h 0 W/m 14,6 km/h (3 Bft) 95,46 %
15.12.2021 06:00 8,3 C 7,8 C 6,1 C 98 % 1030,5 hPa 0,0 l/m 0,00 h 0,00 h 0 W/m 12,1 km/h (2 Bft) 97,27 %
15.12.2021 07:00 8,3 C 7,8 C 6,1 C 98 % 1030,8 hPa 0,0 l/m 0,00 h 0,00 h 0 W/m 11,8 km/h (2 Bft) 98,46 %
15.12.2021 08:00 8,3 C 7,8 C 6,4 C 98 % 1031,1 hPa 0,0 l/m 0,00 h 0,00 h 0 W/m 13,8 km/h (3 Bft) 95,95 %
15.12.2021 09:00 8,5 C 7,8 C 6,7 C 98 % 1031,5 hPa 0,0 l/m 0,00 h 0,00 h 8 W/m 14,3 km/h (3 Bft) 98,45 %
15.12.2021 10:00 8,7 C 8,3 C 6,7 C 98 % 1031,7 hPa 0,0 l/m 0,00 h 0,00 h 24 W/m 12,9 km/h (3 Bft) 97,79 %
15.12.2021 11:00 8,9 C 8,3 C 7,2 C 98 % 1031,9 hPa 0,0 l/m 0,00 h 0,00 h 37 W/m 13,8 km/h (3 Bft) 95,39 %
15.12.2021 12:00 9,1 C 8,9 C 7,2 C 97 % 1031,8 hPa 0,0 l/m 0,00 h 0,00 h 42 W/m 11,8 km/h (2 Bft) 98,35 %
15.12.2021 13:00 9,3 C 8,9 C 7,4 C 97 % 1031,6 hPa 0,0 l/m 0,00 h 0,00 h 47 W/m 10,1 km/h (2 Bft) 96,95 %
15.12.2021 14:00 9,4 C 8,9 C 7,7 C 97 % 1031,5 hPa 0,0 l/m 0,00 h 0,00 h 40 W/m 10,1 km/h (2 Bft) 95,87 %
15.12.2021 15:00 9,4 C 8,9 C 7,4 C 96 % 1031,5 hPa 0,0 l/m 0,00 h 0,00 h 18 W/m 11,1 km/h (2 Bft) 99,14 %
15.12.2021 16:00 9,3 C 8,5 C 7,2 C 96 % 1031,9 hPa 0,0 l/m 0,00 h 0,00 h 6 W/m 5,2 km/h (1 Bft) 95,22 %
15.12.2021 17:00 9,1 C 8,3 C 7,2 C 96 % 1032,4 hPa 0,0 l/m 0,00 h 0,00 h 0 W/m 6,0 km/h (2 Bft) 96,51 %
15.12.2021 18:00 9,1 C 8,3 C 6,8 C 96 % 1032,8 hPa 0,0 l/m 0,00 h 0,00 h 0 W/m 6,4 km/h (2 Bft) 98,60 %
15.12.2021 19:00 9,2 C 8,5 C 7,2 C 96 % 1033,1 hPa 0,0 l/m 0,00 h 0,00 h 0 W/m 6,1 km/h (2 Bft) 97,37 %
15.12.2021 20:00 9,2 C 8,3 C 7,1 C 96 % 1033,5 hPa 0,0 l/m 0,00 h 0,00 h 0 W/m 7,3 km/h (2 Bft) 95,22 %
15.12.2021 21:00 9,1 C 8,3 C 6,7 C 96 % 1033,7 hPa 0,0 l/m 0,00 h 0,00 h 0 W/m 4,7 km/h (1 Bft) 98,65 %
15.12.2021 22:00 8,9 C 8,3 C 6,7 C 97 % 1033,8 hPa 0,0 l/m 0,00 h 0,00 h 0 W/m 3,2 km/h (1 Bft) 97,08 %
15.12.2021 23:00 8,8 C 8,3 C 6,7 C 97 % 1034,0 hPa 0,0 l/m 0,00 h 0,00 h 0 W/m 3,5 km/h (1 Bft) 96,61 %
16.12.2021 00:00 8,7 C 8,2 C 6,7 C 97 % 1034,3 hPa 0,0 l/m 0,00 h 0,00 h 0 W/m 5,5 km/h (1 Bft) 96,80 %
16.12.2021 01:00 8,7 C 7,8 C 6,7 C 97 % 1034,5 hPa 0,0 l/m 0,00 h 0,00 h 0 W/m 3,8 km/h (1 Bft) 99,00 %
16.12.2021 02:00 8,5 C 7,8 C 6,7 C 97 % 1034,7 hPa 0,0 l/m 0,00 h 0,00 h 0 W/m 3,0 km/h (1 Bft) 95,22 %
16.12.2021 03:00 8,4 C 7,8 C 6,6 C 98 % 1034,9 hPa 0,0 l/m 0,00 h 0,00 h 0 W/m 3,0 km/h (1 Bft) 98,00 %
16.12.2021 04:00 8,1 C 7,1 C 6,0 C 98 % 1035,0 hPa 0,0 l/m 0,00 h 0,00 h 0 W/m 0,9 km/h (0 Bft) 97,94 %
16.12.2021 05:00 7,7 C 6,5 C 5,4 C 98 % 1035,3 hPa 0,0 l/m 0,00 h 0,00 h 0 W/m 0,9 km/h (0 Bft) 96,36 %
16.12.2021 06:00 7,1 C 5,6 C 4,5 C 98 % 1035,4 hPa 0,0 l/m 0,00 h 0,00 h 0 W/m 0,2 km/h (0 Bft) 98,01 %
16.12.2021 07:00 6,2 C 4,8 C 3,9 C 98 % 1035,9 hPa 0,0 l/m 0,00 h 0,00 h 0 W/m 0,1 km/h (0 Bft) 96,82 %
16.12.2021 08:00 5,6 C 4,1 C 3,3 C 98 % 1036,5 hPa 0,0 l/m 0,00 h 0,00 h 7 W/m 0,3 km/h (0 Bft) 96,11 %
16.12.2021 09:00 4,8 C 4,4 C 3,7 C 97 % 1037,3 hPa 0,0 l/m 0,00 h 0,00 h 23 W/m 0,7 km/h (0 Bft) 98,01 %
16.12.2021 10:00 6,1 C 6,4 C 5,6 C 98 % 1037,9 hPa 0,0 l/m 0,00 h 0,03 h 38 W/m 1,3 km/h (1 Bft) 97,92 %
16.12.2021 11:00 7,3 C 7,0 C 6,1 C 99 % 1038,0 hPa 0,0 l/m 0,00 h 0,00 h 49 W/m 3,0 km/h (1 Bft) 95,53 %
16.12.2021 12:00 7,5 C 7,2 C 6,6 C 99 % 1038,2 hPa 0,0 l/m 0,00 h 0,00 h 58 W/m 2,9 km/h (1 Bft) 95,55 %
16.12.2021 13:00 7,9 C 7,8 C 7,0 C 99 % 1038,0 hPa 0,0 l/m 0,00 h 0,00 h 63 W/m 2,7 km/h (1 Bft) 97,81 %
16.12.2021 14:00 8,1 C 7,8 C 7,2 C 100 % 1038,1 hPa 0,0 l/m 0,00 h 0,00 h 42 W/m 3,8 km/h (1 Bft) 96,14 %
16.12.2021 15:00 8,4 C 8,1 C 7,2 C 100 % 1038,3 hPa 0,0 l/m 0,00 h 0,00 h 21 W/m 0,6 km/h (0 Bft) 97,71 %
16.12.2021 16:00 8,5 C 7,8 C 7,2 C 100 % 1038,3 hPa 0,0 l/m 0,00 h 0,00 h 8 W/m 0,1 km/h (0 Bft) 96,48 %
16.12.2021 17:00 8,4 C 7,8 C 7,2 C 100 % 1038,7 hPa 0,0 l/m 0,00 h 0,00 h 0 W/m 0,4 km/h (0 Bft) 96,20 %
16.12.2021 18:00 8,3 C 7,8 C 7,0 C 100 % 1038,9 hPa 0,0 l/m 0,00 h 0,00 h 0 W/m 0,0 km/h (0 Bft) 97,52 %
16.12.2021 19:00 8,1 C 7,3 C 6,7 C 99 % 1039,3 hPa 0,0 l/m 0,00 h 0,00 h 0 W/m 0,0 km/h (0 Bft) 98,29 %
16.12.2021 20:00 8,1 C 7,2 C 6,7 C 100 % 1039,6 hPa 0,0 l/m 0,00 h 0,00 h 0 W/m 0,0 km/h (0 Bft) 96,98 %
16.12.2021 21:00 8,1 C 7,3 C 6,9 C 100 % 1039,9 hPa 0,0 l/m 0,00 h 0,00 h 0 W/m 0,0 km/h (0 Bft) 97,61 %
16.12.2021 22:00 8,1 C 7,2 C 7,2 C 100 % 1040,1 hPa 0,0 l/m 0,00 h 0,00 h 0 W/m 0,0 km/h (0 Bft) 98,30 %
16.12.2021 23:00 8,1 C 7,3 C 7,2 C 100 % 1039,9 hPa 0,0 l/m 0,00 h 0,00 h 0 W/m 0,1 km/h (0 Bft) 95,60 %
17.12.2021 00:00 8,1 C 7,5 C 7,2 C 99 % 1040,0 hPa 0,0 l/m 0,00 h 0,00 h 0 W/m 0,0 km/h (0 Bft) 99,63 %
17.12.2021 01:00 8,0 C 7,2 C 7,2 C 100 % 1039,9 hPa 0,0 l/m 0,00 h 0,00 h 0 W/m 0,0 km/h (0 Bft) 97,31 %
17.12.2021 02:00 7,9 C 7,2 C 7,2 C 100 % 1039,6 hPa 0,0 l/m 0,00 h 0,00 h 0 W/m 0,3 km/h (0 Bft) 95,14 %
17.12.2021 03:00 7,9 C 7,2 C 7,2 C 99 % 1039,7 hPa 0,0 l/m 0,00 h 0,00 h 0 W/m 0,9 km/h (0 Bft) 98,51 %
17.12.2021 04:00 7,9 C 7,2 C 7,2 C 100 % 1039,7 hPa 0,0 l/m 0,00 h 0,00 h 0 W/m 0,0 km/h (0 Bft) 97,33 %
17.12.2021 05:00 7,8 C 7,2 C 7,2 C 100 % 1039,6 hPa 0,0 l/m 0,00 h 0,00 h 0 W/m 3,4 km/h (1 Bft) 96,80 %
17.12.2021 06:00 7,8 C 7,2 C 7,2 C 100 % 1039,7 hPa 0,0 l/m 0,00 h 0,00 h 0 W/m 3,1 km/h (1 Bft) 99,57 %
17.12.2021 07:00 7,7 C 7,2 C 7,2 C 100 % 1039,7 hPa 0,0 l/m 0,00 h 0,00 h 0 W/m 5,0 km/h (1 Bft) 95,86 %
17.12.2021 08:00 7,6 C 7,2 C 6,8 C 100 % 1039,8 hPa 0,0 l/m 0,00 h 0,00 h 0 W/m 5,3 km/h (1 Bft) 98,29 %
17.12.2021 09:00 7,6 C 7,2 C 7,0 C 100 % 1040,1 hPa 0,0 l/m 0,00 h 0,00 h 8 W/m 5,5 km/h (1 Bft) 96,90 %
17.12.2021 10:00 7,6 C 7,2 C 7,2 C 100 % 1040,5 hPa 0,0 l/m 0,00 h 0,00 h 16 W/m 5,3 km/h (1 Bft) 96,32 %
17.12.2021 11:00 7,8 C 7,6 C 7,2 C 100 % 1040,6 hPa 0,0 l/m 0,00 h 0,00 h 26 W/m 4,2 km/h (1 Bft) 97,22 %
17.12.2021 12:00 8,1 C 7,8 C 7,7 C 100 % 1040,5 hPa 0,0 l/m 0,00 h 0,00 h 29 W/m 4,5 km/h (1 Bft) 97,73 %
17.12.2021 13:00 8,2 C 7,8 C 7,8 C 100 % 1040,4 hPa 0,0 l/m 0,00 h 0,00 h 23 W/m 5,7 km/h (1 Bft) 97,72 %
17.12.2021 14:00 8,3 C 7,8 C 7,8 C 100 % 1040,2 hPa 0,0 l/m 0,00 h 0,00 h 22 W/m 5,9 km/h (2 Bft) 97,97 %
17.12.2021 15:00 8,3 C 7,9 C 7,8 C 100 % 1040,0 hPa 0,0 l/m 0,00 h 0,00 h 14 W/m 5,5 km/h (1 Bft) 97,17 %
17.12.2021 16:00 8,0 C 7,7 C 7,4 C 100 % 1040,2 hPa 0,0 l/m 0,00 h 0,00 h 5 W/m 4,9 km/h (1 Bft) 98,22 %
17.12.2021 17:00 7,3 C 7,1 C 6,9 C 99 % 1040,4 hPa 0,0 l/m 0,00 h 0,00 h 0 W/m 3,8 km/h (1 Bft) 96,79 %
17.12.2021 18:00 6,9 C 5,9 C 5,8 C 99 % 1040,2 hPa 0,0 l/m 0,00 h 0,00 h 0 W/m 0,1 km/h (0 Bft) 98,68 %
17.12.2021 19:00 6,0 C 5,1 C 4,9 C 99 % 1040,4 hPa 0,0 l/m 0,00 h 0,00 h 0 W/m 0,0 km/h (0 Bft) 98,15 %
17.12.2021 20:00 6,1 C 5,9 C 5,6 C 99 % 1040,6 hPa 0,0 l/m 0,00 h 0,00 h 0 W/m 0,6 km/h (0 Bft) 94,63 %
17.12.2021 21:00 6,3 C 6,1 C 5,7 C 98 % 1040,5 hPa 0,0 l/m 0,00 h 0,00 h 0 W/m 1,0 km/h (0 Bft) 97,93 %
17.12.2021 22:00 6,6 C 6,3 C 6,0 C 98 % 1040,4 hPa 0,0 l/m 0,00 h 0,00 h 0 W/m 2,5 km/h (1 Bft) 96,98 %
17.12.2021 23:00 6,8 C 6,3 C 5,9 C 98 % 1040,4 hPa 0,0 l/m 0,00 h 0,00 h 0 W/m 2,6 km/h (1 Bft) 97,65 %
18.12.2021 00:00 7,0 C 6,7 C 6,0 C 97 % 1040,3 hPa 0,0 l/m 0,00 h 0,00 h 0 W/m 2,9 km/h (1 Bft) 97,10 %
18.12.2021 01:00 7,1 C 6,7 C 6,1 C 97 % 1040,1 hPa 0,0 l/m 0,00 h 0,00 h 0 W/m 1,0 km/h (0 Bft) 98,34 %
18.12.2021 02:00 7,1 C 6,7 C 5,8 C 97 % 1040,1 hPa 0,0 l/m 0,00 h 0,00 h 0 W/m 0,1 km/h (0 Bft) 96,59 %
18.12.2021 03:00 7,1 C 6,7 C 5,7 C 97 % 1039,9 hPa 0,0 l/m 0,00 h 0,00 h 0 W/m 1,5 km/h (1 Bft) 97,52 %
18.12.2021 04:00 7,2 C 6,7 C 5,8 C 97 % 1039,6 hPa 0,0 l/m 0,00 h 0,00 h 0 W/m 1,4 km/h (1 Bft) 97,71 %
18.12.2021 05:00 7,2 C 6,7 C 6,1 C 98 % 1039,7 hPa 0,0 l/m 0,00 h 0,00 h 0 W/m 2,6 km/h (1 Bft) 97,53 %
18.12.2021 06:00 7,1 C 6,7 C 5,9 C 98 % 1039,8 hPa 0,0 l/m 0,00 h 0,00 h 0 W/m 2,8 km/h (1 Bft) 95,59 %
18.12.2021 07:00 7,0 C 6,1 C 5,6 C 98 % 1039,9 hPa 0,0 l/m 0,00 h 0,00 h 0 W/m 0,4 km/h (0 Bft) 99,23 %
18.12.2021 08:00 6,9 C 6,1 C 5,6 C 98 % 1039,8 hPa 0,0 l/m 0,00 h 0,00 h 0 W/m 2,5 km/h (1 Bft) 95,24 %
18.12.2021 09:00 6,9 C 6,2 C 5,8 C 98 % 1039,8 hPa 0,0 l/m 0,00 h 0,00 h 9 W/m 1,1 km/h (0 Bft) 98,79 %
18.12.2021 10:00 7,1 C 6,7 C 6,1 C 99 % 1039,8 hPa 0,2 l/m 0,00 h 0,00 h 21 W/m 1,2 km/h (1 Bft) 97,79 %
18.12.2021 11:00 7,2 C 6,7 C 6,1 C 99 % 1039,6 hPa 0,0 l/m 0,00 h 0,00 h 34 W/m 2,1 km/h (1 Bft) 96,87 %
18.12.2021 12:00 7,2 C 6,7 C 6,2 C 99 % 1039,1 hPa 0,0 l/m 0,00 h 0,00 h 31 W/m 4,3 km/h (1 Bft) 96,91 %
18.12.2021 13:00 7,3 C 6,9 C 6,6 C 99 % 1038,7 hPa 0,0 l/m 0,00 h 0,00 h 22 W/m 6,0 km/h (2 Bft) 95,70 %
18.12.2021 14:00 7,1 C 6,7 C 6,1 C 99 % 1038,4 hPa 0,0 l/m 0,00 h 0,00 h 28 W/m 11,1 km/h (2 Bft) 96,66 %
18.12.2021 15:00 6,7 C 6,4 C 6,1 C 99 % 1038,1 hPa 0,0 l/m 0,00 h 0,00 h 14 W/m 8,0 km/h (2 Bft) 99,22 %
18.12.2021 16:00 6,2 C 5,7 C 5,4 C 99 % 1038,2 hPa 0,0 l/m 0,00 h 0,00 h 0 W/m 8,5 km/h (2 Bft) 95,38 %
18.12.2021 17:00 5,6 C 5,0 C 5,0 C 99 % 1038,3 hPa 0,0 l/m 0,00 h 0,00 h 0 W/m 9,2 km/h (2 Bft) 95,90 %
18.12.2021 18:00 5,5 C 5,0 C 5,0 C 99 % 1038,3 hPa 0,0 l/m 0,00 h 0,00 h 0 W/m 6,3 km/h (2 Bft) 98,70 %
18.12.2021 19:00 5,7 C 5,5 C 5,0 C 99 % 1038,0 hPa 0,0 l/m 0,00 h 0,00 h 0 W/m 5,0 km/h (1 Bft) 95,94 %
18.12.2021 20:00 5,8 C 5,6 C 5,0 C 99 % 1037,7 hPa 0,0 l/m 0,00 h 0,00 h 0 W/m 2,0 km/h (1 Bft) 97,36 %
18.12.2021 21:00 5,9 C 5,6 C 5,0 C 99 % 1037,6 hPa 0,0 l/m 0,00 h 0,00 h 0 W/m 2,8 km/h (1 Bft) 95,59 %
18.12.2021 22:00 5,9 C 5,6 C 5,0 C 99 % 1037,3 hPa 0,0 l/m 0,00 h 0,00 h 0 W/m 2,6 km/h (1 Bft) 98,48 %
18.12.2021 23:00 5,9 C 5,6 C 5,0 C 99 % 1037,1 hPa 0,0 l/m 0,00 h 0,00 h 0 W/m 3,4 km/h (1 Bft) 95,94 %
19.12.2021 00:00 6,0 C 5,6 C 5,2 C 99 % 1036,7 hPa 0,0 l/m 0,00 h 0,00 h 0 W/m 3,6 km/h (1 Bft) 95,61 %
19.12.2021 01:00 6,0 C 5,6 C 5,5 C 99 % 1036,2 hPa 0,0 l/m 0,00 h 0,00 h 0 W/m 4,1 km/h (1 Bft) 98,79 %
19.12.2021 02:00 6,1 C 5,6 C 5,6 C 99 % 1035,7 hPa 0,0 l/m 0,00 h 0,00 h 0 W/m 3,9 km/h (1 Bft) 95,82 %
19.12.2021 03:00 6,1 C 5,6 C 5,6 C 99 % 1035,4 hPa 0,0 l/m 0,00 h 0,00 h 0 W/m 5,2 km/h (1 Bft) 96,46 %
19.12.2021 04:00 6,1 C 5,6 C 5,6 C 99 % 1034,8 hPa 0,2 l/m 0,00 h 0,00 h 0 W/m 6,2 km/h (2 Bft) 98,68 %
19.12.2021 05:00 6,1 C 5,6 C 5,6 C 99 % 1034,2 hPa 0,0 l/m 0,00 h 0,10 h 0 W/m 7,9 km/h (2 Bft) 95,51 %
19.12.2021 06:00 6,0 C 5,6 C 5,4 C 99 % 1033,9 hPa 0,0 l/m 0,00 h 0,00 h 0 W/m 8,6 km/h (2 Bft) 98,71 %
19.12.2021 07:00 5,5 C 5,0 C 5,0 C 99 % 1033,7 hPa 0,0 l/m 0,00 h 0,00 h 0 W/m 10,4 km/h (2 Bft) 97,94 %
19.12.2021 08:00 5,3 C 5,0 C 5,0 C 99 % 1033,3 hPa 0,0 l/m 0,00 h 0,00 h 4 W/m 4,3 km/h (1 Bft) 96,49 %
19.12.2021 09:00 5,5 C 5,0 C 5,0 C 99 % 1032,9 hPa 0,2 l/m 0,00 h 0,00 h 18 W/m 7,8 km/h (2 Bft) 98,54 %
19.12.2021 10:00 5,8 C 5,7 C 5,5 C 100 % 1032,7 hPa 0,0 l/m 0,00 h 0,00 h 54 W/m 8,2 km/h (2 Bft) 97,23 %
19.12.2021 11:00 6,2 C 6,2 C 5,9 C 100 % 1032,3 hPa 0,0 l/m 0,00 h 0,00 h 82 W/m 9,1 km/h (2 Bft) 96,05 %
19.12.2021 12:00 6,3 C 6,1 C 5,9 C 100 % 1031,5 hPa 0,0 l/m 0,00 h 0,07 h 51 W/m 12,4 km/h (3 Bft) 97,52 %
19.12.2021 13:00 6,2 C 6,4 C 5,9 C 99 % 1030,9 hPa 0,0 l/m 0,00 h 0,03 h 52 W/m 14,4 km/h (3 Bft) 97,55 %
19.12.2021 14:00 6,3 C 6,1 C 5,6 C 99 % 1030,2 hPa 0,0 l/m 0,00 h 0,00 h 32 W/m 9,1 km/h (2 Bft) 96,69 %
19.12.2021 15:00 6,2 C 5,6 C 5,6 C 98 % 1029,9 hPa 0,0 l/m 0,00 h 0,00 h 10 W/m 7,1 km/h (2 Bft) 98,19 %
19.12.2021 16:00 6,0 C 5,6 C 5,2 C 98 % 1029,5 hPa 0,0 l/m 0,00 h 0,00 h 4 W/m 9,8 km/h (2 Bft) 97,03 %
19.12.2021 17:00 5,8 C 5,4 C 5,0 C 98 % 1029,1 hPa 0,0 l/m 0,00 h 0,00 h 0 W/m 6,4 km/h (2 Bft) 96,67 %
19.12.2021 18:00 5,9 C 5,0 C 5,0 C 98 % 1028,8 hPa 0,2 l/m 0,00 h 0,03 h 0 W/m 7,1 km/h (2 Bft) 96,12 %
19.12.2021 19:00 5,9 C 5,5 C 5,0 C 98 % 1028,5 hPa 0,0 l/m 0,00 h 0,00 h 0 W/m 7,2 km/h (2 Bft) 99,49 %
19.12.2021 20:00 5,9 C 5,6 C 5,0 C 99 % 1028,4 hPa 0,0 l/m 0,00 h 0,03 h 0 W/m 6,5 km/h (2 Bft) 94,87 %
19.12.2021 21:00 5,9 C 5,6 C 5,0 C 99 % 1028,4 hPa 0,2 l/m 0,00 h 0,00 h 0 W/m 5,7 km/h (1 Bft) 96,79 %
19.12.2021 22:00 5,9 C 5,6 C 5,1 C 99 % 1028,3 hPa 0,0 l/m 0,00 h 0,10 h 0 W/m 6,9 km/h (2 Bft) 98,74 %
19.12.2021 23:00 5,9 C 5,4 C 5,0 C 99 % 1028,1 hPa 0,0 l/m 0,00 h 0,00 h 0 W/m 5,8 km/h (2 Bft) 97,50 %
Min-Datum _ 16.12.21 16.12.21 16.12.21 13.12.21 13.12.21 - - - - 13.12.21 15.12.21
_ Min-Zeit 09:14 08:52 08:50 13:44 00:28 - - - - 11:58 16:48
Minimum _ 4,6 C 3,3 C 2,8 C 85 % 1025,9 hPa - - - - 0,0 km/h (0 Bft) 33,33 %
Max-Datum _ 13.12.21 13.12.21 13.12.21 13.12.21 17.12.21 13.12.21 13.12.21 13.12.21 13.12.21 15.12.21 13.12.21
_ Max-Zeit 13:06 12:16 12:20 00:00 11:32 00:36 12:12 00:20 12:16 10:08 00:00
Maximum _ 10,2 C 10,6 C 8,9 C 100 % 1040,8 hPa 0,2 l/m 0,03 h 0,03 h 173 W/m 29,0 km/h
S-SW (5 Bft)
100,00 %
Durchschnitt _ 7,7 C 7,1 C 6,2 C 97 % 1033,6 hPa #1,4 l/m #38 min. #36 min. 32 W/m 6,0 km/h (2 Bft) 97,22 %
© 2021 W. Hausmann